sensor_id;sensor_type;location;lat;lon;timestamp;pressure;altitude;pressure_sealevel;temperature;humidity
73016;BME280;61893;50.074;14.440;2024-03-25T00:00:48;97040.13;;;4.40;87.37
73016;BME280;61893;50.074;14.440;2024-03-25T00:03:34;97046.81;;;4.35;87.40
73016;BME280;61893;50.074;14.440;2024-03-25T00:06:06;97052.19;;;4.43;87.39
73016;BME280;61893;50.074;14.440;2024-03-25T00:08:32;97047.91;;;4.42;87.36
73016;BME280;61893;50.074;14.440;2024-03-25T00:10:58;97052.66;;;4.38;87.40
73016;BME280;61893;50.074;14.440;2024-03-25T00:13:24;97054.38;;;4.47;86.88
73016;BME280;61893;50.074;14.440;2024-03-25T00:15:50;97051.72;;;4.47;86.94
73016;BME280;61893;50.074;14.440;2024-03-25T00:18:19;97053.38;;;4.48;87.64
73016;BME280;61893;50.074;14.440;2024-03-25T00:20:47;97046.84;;;4.53;86.88
73016;BME280;61893;50.074;14.440;2024-03-25T00:23:14;97056.84;;;4.49;87.29
73016;BME280;61893;50.074;14.440;2024-03-25T00:26:01;97054.28;;;4.57;86.99
73016;BME280;61893;50.074;14.440;2024-03-25T00:28:35;97054.19;;;4.49;86.89
73016;BME280;61893;50.074;14.440;2024-03-25T00:31:01;97052.56;;;4.48;87.24
73016;BME280;61893;50.074;14.440;2024-03-25T00:33:33;97062.56;;;4.44;87.31
73016;BME280;61893;50.074;14.440;2024-03-25T00:36:17;97048.50;;;4.54;86.30
73016;BME280;61893;50.074;14.440;2024-03-25T00:38:47;97046.84;;;4.53;86.54
73016;BME280;61893;50.074;14.440;2024-03-25T00:41:16;97042.22;;;4.55;86.25
73016;BME280;61893;50.074;14.440;2024-03-25T00:43:48;97046.84;;;4.53;86.39
73016;BME280;61893;50.074;14.440;2024-03-25T00:46:17;97035.13;;;4.47;86.14
73016;BME280;61893;50.074;14.440;2024-03-25T00:48:45;97046.25;;;4.41;86.45
73016;BME280;61893;50.074;14.440;2024-03-25T00:51:13;97049.72;;;4.41;86.91
73016;BME280;61893;50.074;14.440;2024-03-25T00:54:00;97048.50;;;4.54;86.13
73016;BME280;61893;50.074;14.440;2024-03-25T00:56:26;97039.31;;;4.58;86.12
73016;BME280;61893;50.074;14.440;2024-03-25T00:58:52;97040.66;;;4.62;85.75
73016;BME280;61893;50.074;14.440;2024-03-25T01:01:18;97030.66;;;4.65;85.62
73016;BME280;61893;50.074;14.440;2024-03-25T01:03:44;97024.88;;;4.62;85.06
73016;BME280;61893;50.074;14.440;2024-03-25T01:06:24;97024.47;;;4.57;85.86
73016;BME280;61893;50.074;14.440;2024-03-25T01:08:51;97027.34;;;4.45;85.47
73016;BME280;61893;50.074;14.440;2024-03-25T01:11:17;97037.75;;;4.47;85.72
73016;BME280;61893;50.074;14.440;2024-03-25T01:13:49;97029.97;;;4.45;85.75
73016;BME280;61893;50.074;14.440;2024-03-25T01:16:15;97030.50;;;4.49;85.75
73016;BME280;61893;50.074;14.440;2024-03-25T01:18:51;97025.47;;;4.56;84.84
73016;BME280;61893;50.074;14.440;2024-03-25T01:21:23;97022.22;;;4.62;84.98
73016;BME280;61893;50.074;14.440;2024-03-25T01:24:06;97034.88;;;4.58;85.25
73016;BME280;61893;50.074;14.440;2024-03-25T01:27:07;97027.28;;;4.55;85.28
73016;BME280;61893;50.074;14.440;2024-03-25T01:29:32;97017.09;;;4.60;85.06
73016;BME280;61893;50.074;14.440;2024-03-25T01:32:01;97022.47;;;4.50;85.33
73016;BME280;61893;50.074;14.440;2024-03-25T01:34:31;97014.94;;;4.56;84.79
73016;BME280;61893;50.074;14.440;2024-03-25T01:36:59;97016.75;;;4.55;84.34
73016;BME280;61893;50.074;14.440;2024-03-25T01:39:25;97026.81;;;4.60;84.72
73016;BME280;61893;50.074;14.440;2024-03-25T01:42:00;97023.22;;;4.61;83.20
73016;BME280;61893;50.074;14.440;2024-03-25T01:44:27;97021.94;;;4.65;83.36
73016;BME280;61893;50.074;14.440;2024-03-25T01:46:55;97023.06;;;4.62;83.62
73016;BME280;61893;50.074;14.440;2024-03-25T01:49:21;97019.88;;;4.77;82.99
73016;BME280;61893;50.074;14.440;2024-03-25T01:51:58;97023.41;;;4.85;82.13
73016;BME280;61893;50.074;14.440;2024-03-25T01:54:30;97020.63;;;4.69;82.92
73016;BME280;61893;50.074;14.440;2024-03-25T01:56:59;97021.38;;;4.79;82.30
73016;BME280;61893;50.074;14.440;2024-03-25T01:59:28;97016.31;;;4.86;82.09
73016;BME280;61893;50.074;14.440;2024-03-25T02:01:59;97026.13;;;4.76;82.74
73016;BME280;61893;50.074;14.440;2024-03-25T02:04:28;97023.31;;;4.77;82.94
73016;BME280;61893;50.074;14.440;2024-03-25T02:06:56;97021.88;;;4.83;83.36
73016;BME280;61893;50.074;14.440;2024-03-25T02:09:23;97032.13;;;4.86;83.03
73016;BME280;61893;50.074;14.440;2024-03-25T02:12:08;97029.19;;;4.89;82.02
73016;BME280;61893;50.074;14.440;2024-03-25T02:14:36;97029.50;;;4.86;81.63
73016;BME280;61893;50.074;14.440;2024-03-25T02:17:05;97028.88;;;4.92;81.40
73016;BME280;61893;50.074;14.440;2024-03-25T02:19:31;97024.28;;;4.94;80.98
73016;BME280;61893;50.074;14.440;2024-03-25T02:21:58;97034.31;;;4.90;81.25
73016;BME280;61893;50.074;14.440;2024-03-25T02:24:24;97032.13;;;4.86;80.77
73016;BME280;61893;50.074;14.440;2024-03-25T02:26:54;97035.66;;;4.94;80.78
73016;BME280;61893;50.074;14.440;2024-03-25T02:29:21;97038.59;;;4.91;81.16
73016;BME280;61893;50.074;14.440;2024-03-25T02:31:47;97041.91;;;4.93;81.77
73016;BME280;61893;50.074;14.440;2024-03-25T02:34:13;97044.53;;;4.93;82.37
73016;BME280;61893;50.074;14.440;2024-03-25T02:36:42;97032.81;;;4.88;82.62
73016;BME280;61893;50.074;14.440;2024-03-25T02:39:43;97041.41;;;4.90;82.12
73016;BME280;61893;50.074;14.440;2024-03-25T02:42:31;97037.56;;;4.84;83.10
73016;BME280;61893;50.074;14.440;2024-03-25T02:44:57;97023.56;;;4.84;83.15
73016;BME280;61893;50.074;14.440;2024-03-25T02:47:42;97035.88;;;4.83;83.52
73016;BME280;61893;50.074;14.440;2024-03-25T02:50:08;97044.03;;;4.90;83.33
73016;BME280;61893;50.074;14.440;2024-03-25T02:52:34;97044.53;;;4.93;83.20
73016;BME280;61893;50.074;14.440;2024-03-25T02:54:59;97042.22;;;4.90;83.23
73016;BME280;61893;50.074;14.440;2024-03-25T02:57:25;97045.28;;;4.86;83.87
73016;BME280;61893;50.074;14.440;2024-03-25T02:59:51;97043.78;;;4.83;84.41
73016;BME280;61893;50.074;14.440;2024-03-25T03:02:22;97046.44;;;4.83;84.09
73016;BME280;61893;50.074;14.440;2024-03-25T03:04:48;97042.16;;;4.82;83.96
73016;BME280;61893;50.074;14.440;2024-03-25T03:07:15;97059.28;;;4.86;83.47
73016;BME280;61893;50.074;14.440;2024-03-25T03:09:41;97055.13;;;4.76;82.73
73016;BME280;61893;50.074;14.440;2024-03-25T03:12:08;97056.31;;;4.81;82.39
73016;BME280;61893;50.074;14.440;2024-03-25T03:14:52;97064.28;;;4.71;82.16
73016;BME280;61893;50.074;14.440;2024-03-25T03:17:32;97071.56;;;4.78;82.11
73016;BME280;61893;50.074;14.440;2024-03-25T03:20:00;97068.03;;;4.69;81.96
73016;BME280;61893;50.074;14.440;2024-03-25T03:22:29;97069.34;;;4.65;81.68
73016;BME280;61893;50.074;14.440;2024-03-25T03:24:55;97074.91;;;4.62;81.57
73016;BME280;61893;50.074;14.440;2024-03-25T03:27:32;97079.38;;;4.61;81.68
73016;BME280;61893;50.074;14.440;2024-03-25T03:29:57;97068.28;;;4.58;81.40
73016;BME280;61893;50.074;14.440;2024-03-25T03:32:23;97079.72;;;4.48;81.59
73016;BME280;61893;50.074;14.440;2024-03-25T03:34:49;97073.19;;;4.53;81.74
73016;BME280;61893;50.074;14.440;2024-03-25T03:37:15;97077.78;;;4.50;81.98
73016;BME280;61893;50.074;14.440;2024-03-25T03:39:41;97077.16;;;4.57;81.89
73016;BME280;61893;50.074;14.440;2024-03-25T03:42:15;97078.75;;;4.49;82.16
73016;BME280;61893;50.074;14.440;2024-03-25T03:44:49;97076.34;;;4.56;81.19
73016;BME280;61893;50.074;14.440;2024-03-25T03:47:17;97082.34;;;4.48;81.50
73016;BME280;61893;50.074;14.440;2024-03-25T03:50:06;97082.53;;;4.47;82.05
73016;BME280;61893;50.074;14.440;2024-03-25T03:52:47;97084.59;;;4.43;81.67
73016;BME280;61893;50.074;14.440;2024-03-25T03:55:22;97090.75;;;4.34;81.48
73016;BME280;61893;50.074;14.440;2024-03-25T03:58:01;97093.91;;;4.38;81.95
73016;BME280;61893;50.074;14.440;2024-03-25T04:00:36;97103.50;;;4.39;81.09
73016;BME280;61893;50.074;14.440;2024-03-25T04:03:11;97107.88;;;4.48;81.10
73016;BME280;61893;50.074;14.440;2024-03-25T04:05:38;97099.44;;;4.44;81.52
73016;BME280;61893;50.074;14.440;2024-03-25T04:08:09;97097.03;;;4.51;81.10
73016;BME280;61893;50.074;14.440;2024-03-25T04:10:50;97112.31;;;4.47;80.79
73016;BME280;61893;50.074;14.440;2024-03-25T04:13:19;97107.56;;;4.51;80.83
73016;BME280;61893;50.074;14.440;2024-03-25T04:16:00;97112.75;;;4.43;80.42
73016;BME280;61893;50.074;14.440;2024-03-25T04:18:31;97123.97;;;4.45;80.51
73016;BME280;61893;50.074;14.440;2024-03-25T04:21:03;97130.44;;;4.50;79.79
73016;BME280;61893;50.074;14.440;2024-03-25T04:23:44;97129.84;;;4.57;80.33
73016;BME280;61893;50.074;14.440;2024-03-25T04:26:25;97132.72;;;4.63;79.78
73016;BME280;61893;50.074;14.440;2024-03-25T04:28:52;97133.31;;;4.57;79.59
73016;BME280;61893;50.074;14.440;2024-03-25T04:31:18;97126.91;;;4.42;80.76
73016;BME280;61893;50.074;14.440;2024-03-25T04:33:57;97142.94;;;4.48;80.55
73016;BME280;61893;50.074;14.440;2024-03-25T04:36:26;97138.66;;;4.47;80.99
73016;BME280;61893;50.074;14.440;2024-03-25T04:38:52;97150.81;;;4.48;80.70
73016;BME280;61893;50.074;14.440;2024-03-25T04:41:18;97152.72;;;4.38;81.17
73016;BME280;61893;50.074;14.440;2024-03-25T04:43:44;97161.44;;;4.39;81.72
73016;BME280;61893;50.074;14.440;2024-03-25T04:46:15;97154.25;;;4.31;81.44
73016;BME280;61893;50.074;14.440;2024-03-25T04:48:41;97159.75;;;4.38;80.96
73016;BME280;61893;50.074;14.440;2024-03-25T04:51:07;97176.41;;;4.38;81.88
73016;BME280;61893;50.074;14.440;2024-03-25T04:53:36;97177.22;;;4.39;80.74
73016;BME280;61893;50.074;14.440;2024-03-25T04:56:07;97178.69;;;4.51;81.42
73016;BME280;61893;50.074;14.440;2024-03-25T04:58:47;97180.19;;;4.54;81.58
73016;BME280;61893;50.074;14.440;2024-03-25T05:01:20;97189.09;;;4.53;82.28
73016;BME280;61893;50.074;14.440;2024-03-25T05:03:48;97183.66;;;4.54;82.39
73016;BME280;61893;50.074;14.440;2024-03-25T05:06:14;97179.97;;;4.47;83.33
73016;BME280;61893;50.074;14.440;2024-03-25T05:08:40;97191.47;;;4.46;82.97
73016;BME280;61893;50.074;14.440;2024-03-25T05:11:11;97191.75;;;4.43;83.02
73016;BME280;61893;50.074;14.440;2024-03-25T05:13:48;97190.81;;;4.34;83.41
73016;BME280;61893;50.074;14.440;2024-03-25T05:16:32;97204.53;;;4.38;82.72
73016;BME280;61893;50.074;14.440;2024-03-25T05:19:30;97204.41;;;4.39;83.15
73016;BME280;61893;50.074;14.440;2024-03-25T05:22:05;97198.94;;;4.50;82.13
73016;BME280;61893;50.074;14.440;2024-03-25T05:24:38;97207.81;;;4.49;81.42
73016;BME280;61893;50.074;14.440;2024-03-25T05:27:10;97201.75;;;4.39;82.01
73016;BME280;61893;50.074;14.440;2024-03-25T05:29:51;97225.84;;;4.44;82.27
73016;BME280;61893;50.074;14.440;2024-03-25T05:32:17;97218.97;;;4.61;81.73
73016;BME280;61893;50.074;14.440;2024-03-25T05:35:00;97215.34;;;4.62;81.43
73016;BME280;61893;50.074;14.440;2024-03-25T05:37:27;97222.97;;;4.65;81.79
73016;BME280;61893;50.074;14.440;2024-03-25T05:39:55;97231.50;;;4.77;81.83
73016;BME280;61893;50.074;14.440;2024-03-25T05:42:26;97227.91;;;4.78;81.62
73016;BME280;61893;50.074;14.440;2024-03-25T05:45:10;97233.59;;;4.73;80.36
73016;BME280;61893;50.074;14.440;2024-03-25T05:47:56;97233.84;;;4.80;80.67
73016;BME280;61893;50.074;14.440;2024-03-25T05:50:37;97227.91;;;4.78;80.25
73016;BME280;61893;50.074;14.440;2024-03-25T05:53:34;97231.78;;;4.74;80.26
73016;BME280;61893;50.074;14.440;2024-03-25T05:56:44;97241.91;;;4.96;80.44
73016;BME280;61893;50.074;14.440;2024-03-25T05:59:39;97235.59;;;4.89;80.27
73016;BME280;61893;50.074;14.440;2024-03-25T06:02:14;97237.63;;;4.95;79.09
73016;BME280;61893;50.074;14.440;2024-03-25T06:04:51;97241.22;;;4.94;78.40
73016;BME280;61893;50.074;14.440;2024-03-25T06:07:32;97238.56;;;5.04;77.96
73016;BME280;61893;50.074;14.440;2024-03-25T06:10:38;97240.38;;;5.04;77.62
73016;BME280;61893;50.074;14.440;2024-03-25T06:13:32;97253.16;;;4.99;77.69
73016;BME280;61893;50.074;14.440;2024-03-25T06:16:21;97254.16;;;5.15;77.28
73016;BME280;61893;50.074;14.440;2024-03-25T06:19:35;97255.88;;;5.25;76.79
73016;BME280;61893;50.074;14.440;2024-03-25T06:22:25;97258.06;;;5.65;74.94
73016;BME280;61893;50.074;14.440;2024-03-25T06:25:14;97258.69;;;5.85;72.69
73016;BME280;61893;50.074;14.440;2024-03-25T06:27:44;97256.53;;;5.62;73.76
73016;BME280;61893;50.074;14.440;2024-03-25T06:30:26;97256.69;;;7.08;69.70
73016;BME280;61893;50.074;14.440;2024-03-25T06:33:26;97271.84;;;9.09;60.54
73016;BME280;61893;50.074;14.440;2024-03-25T06:36:34;97267.53;;;7.88;63.08
73016;BME280;61893;50.074;14.440;2024-03-25T06:39:31;97275.53;;;7.05;66.81
73016;BME280;61893;50.074;14.440;2024-03-25T06:42:47;97287.06;;;6.53;68.40
73016;BME280;61893;50.074;14.440;2024-03-25T06:46:07;97295.63;;;6.47;68.71
73016;BME280;61893;50.074;14.440;2024-03-25T06:49:20;97301.03;;;6.45;69.08
73016;BME280;61893;50.074;14.440;2024-03-25T06:52:10;97299.78;;;6.58;68.62
73016;BME280;61893;50.074;14.440;2024-03-25T06:58:58;97310.28;;;6.75;67.54
73016;BME280;61893;50.074;14.440;2024-03-25T07:05:13;97324.16;;;6.77;67.23
73016;BME280;61893;50.074;14.440;2024-03-25T07:08:46;97311.97;;;6.50;67.78
73016;BME280;61893;50.074;14.440;2024-03-25T07:15:05;97328.03;;;6.91;65.74
73016;BME280;61893;50.074;14.440;2024-03-25T07:17:33;97334.34;;;7.07;65.60
73016;BME280;61893;50.074;14.440;2024-03-25T07:19:59;97329.63;;;7.18;65.36
73016;BME280;61893;50.074;14.440;2024-03-25T07:22:38;97345.34;;;7.28;65.02
73016;BME280;61893;50.074;14.440;2024-03-25T07:28:52;97347.66;;;6.54;66.97
73016;BME280;61893;50.074;14.440;2024-03-25T08:05:07;97375.91;;;7.73;62.86
73016;BME280;61893;50.074;14.440;2024-03-25T08:07:44;97381.13;;;7.40;64.12
73016;BME280;61893;50.074;14.440;2024-03-25T08:10:11;97383.06;;;8.13;65.39
73016;BME280;61893;50.074;14.440;2024-03-25T08:13:05;97385.22;;;8.67;64.70
73016;BME280;61893;50.074;14.440;2024-03-25T08:19:07;97379.41;;;9.28;59.53
73016;BME280;61893;50.074;14.440;2024-03-25T08:28:19;97387.56;;;8.46;58.79
73016;BME280;61893;50.074;14.440;2024-03-25T08:45:58;97397.13;;;8.79;56.20
73016;BME280;61893;50.074;14.440;2024-03-25T14:02:47;97458.84;;;10.08;45.95
73016;BME280;61893;50.074;14.440;2024-03-25T14:06:33;97459.06;;;10.21;45.64
73016;BME280;61893;50.074;14.440;2024-03-25T14:09:44;97462.38;;;10.54;44.97
73016;BME280;61893;50.074;14.440;2024-03-25T14:13:37;97452.97;;;10.81;43.96
73016;BME280;61893;50.074;14.440;2024-03-25T15:16:07;97417.09;;;9.93;44.50
73016;BME280;61893;50.074;14.440;2024-03-25T15:36:50;97421.63;;;10.08;44.79
73016;BME280;61893;50.074;14.440;2024-03-25T15:39:40;97412.88;;;10.30;43.53
73016;BME280;61893;50.074;14.440;2024-03-25T16:34:02;97385.41;;;9.21;44.93
73016;BME280;61893;50.074;14.440;2024-03-25T16:49:54;97384.25;;;8.27;47.83
73016;BME280;61893;50.074;14.440;2024-03-25T18:04:25;97377.91;;;6.34;57.97
73016;BME280;61893;50.074;14.440;2024-03-25T18:07:26;97380.09;;;6.39;57.69
73016;BME280;61893;50.074;14.440;2024-03-25T18:19:05;97375.53;;;6.23;60.11
73016;BME280;61893;50.074;14.440;2024-03-25T18:21:37;97382.25;;;6.17;60.28
73016;BME280;61893;50.074;14.440;2024-03-25T18:24:08;97385.06;;;6.16;60.94
73016;BME280;61893;50.074;14.440;2024-03-25T19:11:54;97405.47;;;5.32;65.95
73016;BME280;61893;50.074;14.440;2024-03-25T19:14:42;97400.97;;;5.42;65.38
73016;BME280;61893;50.074;14.440;2024-03-25T19:17:16;97406.69;;;5.38;65.02
73016;BME280;61893;50.074;14.440;2024-03-25T19:31:38;97395.56;;;5.16;67.17
73016;BME280;61893;50.074;14.440;2024-03-25T19:36:51;97400.28;;;5.13;66.70
73016;BME280;61893;50.074;14.440;2024-03-25T20:25:39;97379.97;;;4.58;68.47
73016;BME280;61893;50.074;14.440;2024-03-25T20:28:30;97382.19;;;4.53;68.58
73016;BME280;61893;50.074;14.440;2024-03-25T20:31:56;97374.03;;;4.46;69.00
73016;BME280;61893;50.074;14.440;2024-03-25T21:38:06;97350.13;;;3.72;71.21
73016;BME280;61893;50.074;14.440;2024-03-25T21:48:54;97352.06;;;3.50;73.06
73016;BME280;61893;50.074;14.440;2024-03-25T22:22:53;97348.91;;;3.47;73.15
73016;BME280;61893;50.074;14.440;2024-03-25T22:25:38;97346.41;;;3.35;74.24
73016;BME280;61893;50.074;14.440;2024-03-25T22:28:20;97341.97;;;3.46;73.42
73016;BME280;61893;50.074;14.440;2024-03-25T22:34:05;97337.38;;;3.19;75.70
73016;BME280;61893;50.074;14.440;2024-03-25T22:39:41;97341.38;;;3.13;76.97
73016;BME280;61893;50.074;14.440;2024-03-25T22:42:27;97344.22;;;3.00;77.39
73016;BME280;61893;50.074;14.440;2024-03-25T22:45:15;97343.13;;;2.93;77.18
73016;BME280;61893;50.074;14.440;2024-03-25T22:50:40;97345.66;;;2.74;78.48
73016;BME280;61893;50.074;14.440;2024-03-25T22:53:24;97348.84;;;2.77;78.63
73016;BME280;61893;50.074;14.440;2024-03-25T22:58:56;97345.31;;;2.57;78.82
73016;BME280;61893;50.074;14.440;2024-03-25T23:01:24;97348.47;;;2.51;79.75
73016;BME280;61893;50.074;14.440;2024-03-25T23:03:51;97343.19;;;2.41;80.01
73016;BME280;61893;50.074;14.440;2024-03-25T23:06:34;97332.81;;;2.40;79.83
73016;BME280;61893;50.074;14.440;2024-03-25T23:09:26;97336.72;;;2.24;80.71
73016;BME280;61893;50.074;14.440;2024-03-25T23:12:09;97326.53;;;2.31;81.33
73016;BME280;61893;50.074;14.440;2024-03-25T23:14:43;97321.28;;;2.52;80.38
73016;BME280;61893;50.074;14.440;2024-03-25T23:17:16;97318.19;;;2.47;79.99
73016;BME280;61893;50.074;14.440;2024-03-25T23:20:39;97317.75;;;2.42;80.07
73016;BME280;61893;50.074;14.440;2024-03-25T23:23:07;97314.75;;;2.46;80.24
73016;BME280;61893;50.074;14.440;2024-03-25T23:25:41;97309.34;;;2.48;79.74
73016;BME280;61893;50.074;14.440;2024-03-25T23:28:34;97308.56;;;2.57;79.87
73016;BME280;61893;50.074;14.440;2024-03-25T23:31:01;97311.88;;;2.59;79.92
73016;BME280;61893;50.074;14.440;2024-03-25T23:33:49;97312.59;;;2.61;79.36
73016;BME280;61893;50.074;14.440;2024-03-25T23:36:34;97307.44;;;2.50;80.37
73016;BME280;61893;50.074;14.440;2024-03-25T23:39:34;97302.00;;;2.42;81.06
73016;BME280;61893;50.074;14.440;2024-03-25T23:42:21;97307.91;;;2.34;81.08
73016;BME280;61893;50.074;14.440;2024-03-25T23:45:32;97302.84;;;2.42;81.18
73016;BME280;61893;50.074;14.440;2024-03-25T23:49:16;97304.34;;;2.35;81.61
73016;BME280;61893;50.074;14.440;2024-03-25T23:52:09;97299.09;;;2.35;81.99
73016;BME280;61893;50.074;14.440;2024-03-25T23:55:21;97299.13;;;2.55;80.89
73016;BME280;61893;50.074;14.440;2024-03-25T23:58:38;97300.13;;;2.54;80.99
